Accueil
METAR-TAF:

METAR-TAF

Aéroports :

Earlton, Ontario, Canada

latitude: 47-42N, longitude: 079-51W, altitude: 243 m

Observation

Le bulletin a été fait il y a 53 minutes, à 19:00 UTC
Vent 9 kt de sud/sud-ouest avec des rafales jusqu'à 15 kt, variant entre sud et ouest/nord-ouest
Température 25°C
Humidité 30%
Pression 1012 hPa
Visibilité: 14.5 km
Ciel couvert à une hauteur de 9000 ft

METAR: CYXR 221900Z AUTO 21009G15KT 190V290 9SM OVC090 25/06 A2987 RMK SLP117 DENSITY ALT 2100FT

Heure: 15:53 (19:53 UTC)

Prévision

Le bulletin a été fait il y a 2 heures et 14 minutes, à 17:39 UTC
Prévision valable du 22 à 18 UTC au 22 à 24 UTC
Vent 10 kt de ouest/sud-ouest
Visibilité: 10 km
Quelques nuages à une hauteur de 8000 ft
Evoluant progressivement
du 22 à 19 UTC au 22 à 21 UTC
Vent 12 kt de ouest/nord-ouest

TAF: CYXR 221739Z 2218/2224 25010KT P6SM FEW080 BECMG 2219/2221 29012KT RMK FCST BASED ON AUTO OBS. NXT FCST WILL BE ISSUED AT 231145Z

Observations et prévisions météorologiques de plus de 4000 aéroports (messages METAR et TAF).

Les stations disponibles sont représentées par des disques jaunes et rouges sur la carte.

Passer la souris dessus pour voir le nom de la station.

Cliquer dessus pour voir les observations et prévisions météorologiques.

Pour changer de carte: cliquez sur les boutons verts avec une croix noire pour zoomer, sur le bouton vert avec un tiret pour effectuer un zoom arrière, ou sur les flèches vertes pour les cartes adjacentes.


METAR-TAF: